createdAt,value
2023-05-24T00:04:56.314Z,98233.19
2023-05-24T00:09:57.936Z,98231.53
2023-05-24T00:15:00.154Z,98234.16
2023-05-24T00:20:01.797Z,98236.00
2023-05-24T00:25:04.675Z,98233.47
2023-05-24T00:30:07.404Z,98226.22
2023-05-24T00:35:09.198Z,98229.59
2023-05-24T00:40:13.957Z,98230.44
2023-05-24T00:45:15.612Z,98230.53
2023-05-24T00:50:17.545Z,98225.66
2023-05-24T00:55:19.238Z,98235.28
2023-05-24T01:00:21.059Z,98247.50
2023-05-24T01:05:23.655Z,98244.38
2023-05-24T01:11:04.033Z,98244.94
2023-05-24T01:16:12.345Z,98251.88
2023-05-24T01:21:30.341Z,98254.59
2023-05-24T01:26:48.884Z,98271.41
2023-05-24T01:31:51.061Z,98275.88
2023-05-24T01:36:52.886Z,98272.13
2023-05-24T01:42:03.553Z,98279.00
2023-05-24T01:47:20.651Z,98283.28
2023-05-24T01:52:27.538Z,98283.69
2023-05-24T01:57:30.316Z,98277.50
2023-05-24T02:02:32.182Z,98281.97
2023-05-24T02:07:33.851Z,98292.72
2023-05-24T02:12:35.933Z,98287.09
2023-05-24T02:17:37.598Z,98276.94
2023-05-24T02:22:39.217Z,98282.81
2023-05-24T02:27:41.941Z,98280.41
2023-05-24T02:32:43.599Z,98276.25
2023-05-24T02:37:45.185Z,98273.63
2023-05-24T02:42:46.800Z,98272.94
2023-05-24T02:47:48.491Z,98267.72
2023-05-24T02:52:50.580Z,98280.28
2023-05-24T02:57:52.856Z,98281.41
2023-05-24T03:02:55.633Z,98275.84
2023-05-24T03:07:58.538Z,98282.28
2023-05-24T03:13:00.134Z,98298.25
2023-05-24T03:18:01.800Z,98303.34
2023-05-24T03:23:03.512Z,98300.53
2023-05-24T03:28:05.227Z,98306.16
2023-05-24T03:33:06.928Z,98313.09
2023-05-24T03:38:08.527Z,98316.34
2023-05-24T03:43:10.208Z,98317.63
2023-05-24T03:48:11.758Z,98315.03
2023-05-24T03:53:13.392Z,98313.69
2023-05-24T03:58:15.081Z,98308.72
2023-05-24T04:03:16.750Z,98321.50
2023-05-24T04:08:18.449Z,98325.13
2023-05-24T04:13:20.104Z,98325.56
2023-05-24T04:18:21.824Z,98330.56
2023-05-24T04:23:23.511Z,98330.00
2023-05-24T04:28:26.289Z,98341.13
2023-05-24T04:33:28.115Z,98339.72
2023-05-24T04:38:32.246Z,98339.16
2023-05-24T04:43:36.935Z,98340.56
2023-05-24T04:48:38.521Z,98340.53
2023-05-24T04:53:40.174Z,98349.06
2023-05-24T04:58:41.739Z,98349.34
2023-05-24T05:03:46.028Z,98349.88
2023-05-24T05:08:47.947Z,98356.38
2023-05-24T05:13:49.808Z,98349.34
2023-05-24T05:18:51.366Z,98353.44
2023-05-24T05:23:52.967Z,98350.75
2023-05-24T05:28:57.922Z,98356.25
2023-05-24T05:33:59.594Z,98356.97
2023-05-24T05:39:01.208Z,98361.09
2023-05-24T05:44:02.821Z,98372.50
2023-05-24T05:49:04.597Z,98379.63
2023-05-24T05:54:06.494Z,98388.38
2023-05-24T05:59:08.087Z,98389.81
2023-05-24T06:04:10.721Z,98394.31
2023-05-24T06:09:19.114Z,98394.28
2023-05-24T06:14:22.528Z,98401.81
2023-05-24T06:19:25.048Z,98411.66
2023-05-24T06:24:28.551Z,98414.34
2023-05-24T06:29:30.141Z,98408.56
2023-05-24T06:34:31.811Z,98414.63
2023-05-24T06:39:33.540Z,98416.75
2023-05-24T06:44:35.234Z,98430.19
2023-05-24T06:49:36.933Z,98437.53
2023-05-24T06:54:38.538Z,98434.97
2023-05-24T06:59:40.143Z,98444.03
2023-05-24T07:04:42.467Z,98456.28
2023-05-24T07:09:44.514Z,98451.66
2023-05-24T07:14:46.126Z,98455.31
2023-05-24T07:19:47.695Z,98453.59
2023-05-24T07:24:49.274Z,98453.84
2023-05-24T07:29:51.037Z,98456.13
2023-05-24T07:34:52.654Z,98458.47
2023-05-24T07:39:54.214Z,98469.03
2023-05-24T07:44:56.486Z,98469.53
2023-05-24T07:49:58.215Z,98462.25
2023-05-24T07:54:59.811Z,98463.53
2023-05-24T08:00:10.484Z,98456.59
2023-05-24T08:05:13.561Z,98457.75
2023-05-24T08:10:15.214Z,98457.88
2023-05-24T08:15:17.128Z,98461.66
2023-05-24T08:20:19.016Z,98454.97
2023-05-24T08:25:21.170Z,98444.53
2023-05-24T08:30:23.365Z,98461.13
2023-05-24T08:35:24.995Z,98465.47
2023-05-24T08:40:26.729Z,98483.09
2023-05-24T08:45:36.926Z,98487.75
2023-05-24T08:50:39.120Z,98490.09
2023-05-24T08:55:43.378Z,98483.91
2023-05-24T09:00:45.470Z,98480.72
2023-05-24T09:05:47.343Z,98482.16
2023-05-24T09:10:55.678Z,98484.88
2023-05-24T09:16:00.025Z,98495.09
2023-05-24T09:21:01.715Z,98492.63
2023-05-24T09:26:11.449Z,98501.25
2023-05-24T09:31:13.958Z,98507.47
2023-05-24T09:36:17.295Z,98506.22
2023-05-24T09:41:20.617Z,98504.34
2023-05-24T09:46:22.290Z,98501.78
2023-05-24T09:51:24.633Z,98510.19
2023-05-24T09:56:27.120Z,98507.88
2023-05-24T10:01:28.978Z,98507.88
2023-05-24T10:06:35.253Z,98506.31
2023-05-24T10:11:37.500Z,98508.59
2023-05-24T10:16:39.276Z,98507.31
2023-05-24T10:21:43.275Z,98507.75
2023-05-24T10:26:48.794Z,98505.78
2023-05-24T10:31:52.774Z,98510.44
2023-05-24T10:36:54.668Z,98516.25
2023-05-24T10:41:57.062Z,98506.91
2023-05-24T10:47:20.130Z,98510.41
2023-05-24T10:52:21.736Z,98512.81
2023-05-24T10:57:24.738Z,98508.25
2023-05-24T11:02:35.949Z,98516.97
2023-05-24T11:07:43.092Z,98516.66
2023-05-24T11:12:45.198Z,98509.94
2023-05-24T11:18:09.344Z,98508.88
2023-05-24T11:23:11.634Z,98511.44
2023-05-24T11:28:13.373Z,98505.78
2023-05-24T11:33:18.895Z,98504.31
2023-05-24T11:38:24.210Z,98504.03
2023-05-24T11:43:26.697Z,98506.00
2023-05-24T11:48:29.858Z,98497.00
2023-05-24T11:53:31.628Z,98498.50
2023-05-24T11:58:50.898Z,98492.00
2023-05-24T12:03:55.517Z,98492.78
2023-05-24T12:08:57.315Z,98490.22
2023-05-24T12:13:59.477Z,98492.00
2023-05-24T12:19:05.742Z,98489.91
2023-05-24T12:24:14.468Z,98490.78
2023-05-24T12:29:17.876Z,98490.91
2023-05-24T12:34:20.670Z,98485.09
2023-05-24T12:39:24.292Z,98490.09
2023-05-24T12:44:27.506Z,98481.31
2023-05-24T12:49:29.864Z,98475.75
2023-05-24T12:54:33.387Z,98474.63
2023-05-24T12:59:35.174Z,98471.53
2023-05-24T13:04:36.872Z,98470.53
2023-05-24T13:09:38.649Z,98467.69
2023-05-24T13:14:40.428Z,98470.81
2023-05-24T13:19:42.092Z,98469.84
2023-05-24T13:24:43.788Z,98465.31
2023-05-24T13:29:59.238Z,98477.47
2023-05-24T13:35:02.304Z,98466.59
2023-05-24T13:40:04.769Z,98465.88
2023-05-24T13:45:07.051Z,98468.13
2023-05-24T13:50:09.432Z,98455.84
2023-05-24T13:55:11.105Z,98466.72
2023-05-24T14:00:13.478Z,98447.78
2023-05-24T14:05:40.128Z,98447.47
2023-05-24T14:10:37.425Z,98448.03
2023-05-24T14:15:39.076Z,98452.16
2023-05-24T14:20:40.992Z,98440.53
2023-05-24T14:25:43.026Z,98439.84
2023-05-24T14:30:44.920Z,98450.91
2023-05-24T14:35:46.702Z,98459.22
2023-05-24T14:40:48.859Z,98465.72
2023-05-24T14:45:50.600Z,98473.09
2023-05-24T14:50:52.462Z,98476.88
2023-05-24T14:55:54.533Z,98478.13
2023-05-24T15:00:56.269Z,98474.78
2023-05-24T15:05:58.234Z,98474.06
2023-05-24T15:11:00.217Z,98480.03
2023-05-24T15:16:01.880Z,98477.09
2023-05-24T15:21:03.771Z,98467.16
2023-05-24T15:26:05.848Z,98478.47
2023-05-24T15:31:07.518Z,98475.50
2023-05-24T15:36:10.516Z,98478.38
2023-05-24T15:41:12.371Z,98475.69
2023-05-24T15:46:13.991Z,98477.63
2023-05-24T15:56:21.646Z,98464.69
2023-05-24T16:01:23.321Z,98470.81
2023-05-24T16:06:25.038Z,98468.66
2023-05-24T16:11:26.711Z,98475.66
2023-05-24T16:16:29.640Z,98479.91
2023-05-24T16:21:32.930Z,98491.31
2023-05-24T16:26:35.040Z,98496.00
2023-05-24T16:31:36.976Z,98491.63
2023-05-24T16:36:39.255Z,98499.81
2023-05-24T16:41:41.150Z,98511.00
2023-05-24T16:46:43.844Z,98511.53
2023-05-24T16:51:45.474Z,98505.19
2023-05-24T16:56:48.300Z,98513.53
2023-05-24T17:01:51.826Z,98508.88
2023-05-24T17:06:53.598Z,98520.69
2023-05-24T17:11:55.308Z,98519.91
2023-05-24T17:16:57.013Z,98524.59
2023-05-24T17:21:58.725Z,98521.88
2023-05-24T17:27:02.393Z,98510.84
2023-05-24T17:32:05.338Z,98515.97
2023-05-24T17:37:07.716Z,98525.03
2023-05-24T17:42:10.203Z,98529.22
2023-05-24T17:47:12.661Z,98526.91
2023-05-24T17:52:15.248Z,98513.16
2023-05-24T17:57:17.534Z,98527.09
2023-05-24T18:02:19.934Z,98537.06
2023-05-24T18:07:22.563Z,98547.63
2023-05-24T18:12:25.404Z,98554.59
2023-05-24T18:17:28.223Z,98554.44
2023-05-24T18:22:30.700Z,98554.59
2023-05-24T18:27:33.162Z,98566.31
2023-05-24T18:32:35.673Z,98567.53
2023-05-24T18:37:41.009Z,98577.06
2023-05-24T18:42:43.572Z,98583.66
2023-05-24T18:47:46.136Z,98598.31
2023-05-24T18:52:48.538Z,98608.25
2023-05-24T18:57:51.159Z,98609.81
2023-05-24T19:02:53.991Z,98610.31
2023-05-24T19:07:56.451Z,98617.38
2023-05-24T19:12:59.078Z,98629.59
2023-05-24T19:18:01.529Z,98634.41
2023-05-24T19:23:03.891Z,98641.03
2023-05-24T19:28:06.669Z,98654.50
2023-05-24T19:33:08.978Z,98660.88
2023-05-24T19:38:10.966Z,98655.56
2023-05-24T19:43:12.809Z,98657.38
2023-05-24T19:48:14.777Z,98666.59
2023-05-24T19:53:16.907Z,98665.41
2023-05-24T19:58:18.645Z,98660.88
2023-05-24T20:03:20.684Z,98657.16
2023-05-24T20:08:22.549Z,98652.88
2023-05-24T20:13:24.172Z,98661.78
2023-05-24T20:18:25.964Z,98660.38
2023-05-24T20:23:27.937Z,98661.06
2023-05-24T20:28:31.817Z,98669.94
2023-05-24T20:33:38.386Z,98668.13
2023-05-24T20:38:40.099Z,98671.19
2023-05-24T20:43:41.806Z,98680.56
2023-05-24T20:48:43.693Z,98677.56
2023-05-24T20:53:46.223Z,98673.19
2023-05-24T20:58:49.469Z,98675.75
2023-05-24T21:03:51.234Z,98672.78
2023-05-24T21:08:52.841Z,98676.38
2023-05-24T21:13:56.866Z,98672.44
2023-05-24T21:19:00.850Z,98672.44
2023-05-24T21:24:02.676Z,98672.88
2023-05-24T21:29:04.500Z,98686.50
2023-05-24T21:34:06.481Z,98690.31
2023-05-24T21:39:08.491Z,98700.31
2023-05-24T21:44:10.272Z,98702.66
2023-05-24T21:49:12.067Z,98708.22
2023-05-24T21:54:13.674Z,98698.00
2023-05-24T21:59:16.285Z,98697.91
2023-05-24T22:04:18.022Z,98705.78
2023-05-24T22:09:19.729Z,98699.78
2023-05-24T22:14:21.555Z,98698.53
2023-05-24T22:19:38.942Z,98700.72
2023-05-24T22:24:41.821Z,98700.69
2023-05-24T22:29:44.042Z,98699.69
2023-05-24T22:34:46.017Z,98700.31
2023-05-24T22:39:47.666Z,98697.06
2023-05-24T22:44:49.282Z,98698.53
2023-05-24T22:49:54.210Z,98693.72
2023-05-24T22:54:56.156Z,98688.53
2023-05-24T22:59:57.760Z,98688.16
2023-05-24T23:05:00.298Z,98690.72
2023-05-24T23:10:03.170Z,98684.19
2023-05-24T23:15:04.974Z,98677.72
2023-05-24T23:20:10.300Z,98692.97
2023-05-24T23:25:12.204Z,98688.94
2023-05-24T23:30:14.024Z,98692.47
2023-05-24T23:35:15.997Z,98687.81
2023-05-24T23:40:17.900Z,98698.78
2023-05-24T23:45:19.620Z,98695.41
2023-05-24T23:50:22.486Z,98701.13
2023-05-24T23:55:24.329Z,98705.38
